Terminal Aerodrome Forecast
Issued by NWS

Home | Current Version | Previous Version | Text Only | Print | Product List | Glossary On
Versions: 1 2 3 4 5 6 7 8 9 10 11 12 13 14 15 16
000
FTUS42 KTBW 011700 RRA
TAFRSW
TAF
KRSW 011742Z 0118/0218 25010KT P6SM VCSH SCT025 BKN030 BKN050
     FM011900 29007KT P6SM VCTS SCT035CB BKN050 BKN100
      TEMPO 0119/0121 3SM TSRA BKN030CB
     FM020100 VRB03KT P6SM FEW010 SCT025 BKN250
     FM021200 34005KT P6SM VCTS SCT010 BKN035CB BKN100=

USA.gov is the U.S. government's official web portal to all federal, state and local government web resources and services.